Time;durP1;ratioP1;P1;durP2;ratioP2;P2;SDS_P1;SDS_P2;PMS_P1;PMS_P2;Temp;Humidity;BMP_temperature;BMP_pressure;BME280_temperature;BME280_humidity;BME280_pressure;Samples;Min_cycle;Max_cycle;Signal;HPM_P1;HPM_P2
2021/11/28 00:02:04;;;;;;;31.40;21.25;;;;;;;1.74;84.68;98320.50;1722306;82;21578;-70
2021/11/28 00:04:30;;;;;;;30.77;22.13;;;;;;;1.67;84.56;98319.88;1720682;82;21075;-70
2021/11/28 00:07:03;;;;;;;;;;;;;;;1.64;84.44;98320.38;1740661;82;21091;-71
2021/11/28 00:09:58;;;;;;;30.55;22.10;;;;;;;1.68;84.41;98326.88;1725148;82;20410;-70
2021/11/28 00:12:25;;;;;;;31.50;23.27;;;;;;;1.66;84.47;98327.66;1706714;82;21135;-70
2021/11/28 00:14:42;;;;;;;45.35;25.32;;;;;;;1.65;84.64;98332.73;1725314;82;21107;-70
2021/11/28 00:17:09;;;;;;;32.38;22.45;;;;;;;1.62;84.82;98333.23;1717926;82;21538;-71
2021/11/28 00:19:38;;;;;;;31.23;23.47;;;;;;;1.59;85.04;98335.89;1754614;80;21079;-71
2021/11/28 00:22:04;;;;;;;;;;;;;;;1.55;84.98;98340.65;1747338;81;21022;-70
2021/11/28 00:24:33;;;;;;;30.97;22.52;;;;;;;1.56;84.86;98345.75;1739206;81;20108;-70
2021/11/28 00:27:00;;;;;;;31.05;22.50;;;;;;;1.52;84.93;98354.03;1739369;81;21067;-70
2021/11/28 00:29:26;;;;;;;31.15;21.55;;;;;;;1.49;84.90;98353.16;1748487;81;21058;-70
2021/11/28 00:31:55;;;;;;;33.50;21.60;;;;;;;1.45;84.80;98356.86;1744682;80;21070;-70
2021/11/28 00:34:23;;;;;;;41.18;24.12;;;;;;;1.38;84.80;98356.78;1744387;81;21058;-70
2021/11/28 00:36:51;;;;;;;36.63;24.25;;;;;;;1.29;84.79;98355.55;1737709;82;21121;-70
2021/11/28 00:39:17;;;;;;;32.90;23.50;;;;;;;1.22;84.74;98358.41;1744718;80;21097;-69
2021/11/28 00:41:44;;;;;;;35.28;23.50;;;;;;;1.18;84.57;98359.12;1758721;81;21202;-70
2021/11/28 00:44:10;;;;;;;41.65;28.55;;;;;;;1.14;84.46;98364.17;1740904;81;21074;-70
2021/11/28 00:46:37;;;;;;;31.40;22.10;;;;;;;1.13;84.45;98356.39;1739678;81;21137;-70
2021/11/28 00:49:10;;;;;;;33.05;23.18;;;;;;;1.11;84.45;98364.66;1737988;81;21601;-70
2021/11/28 00:54:02;;;;;;;30.57;21.68;;;;;;;1.06;84.56;98361.10;1736060;81;21053;-70
2021/11/28 00:56:28;;;;;;;33.13;23.52;;;;;;;0.96;84.64;98353.17;1751147;81;21590;-70
2021/11/28 00:58:55;;;;;;;;;;;;;;;0.88;84.71;98354.11;1746993;81;21649;-71
2021/11/28 01:01:21;;;;;;;25.32;21.00;;;;;;;0.87;84.87;98359.18;1742522;81;20116;-69
2021/11/28 01:03:48;;;;;;;23.80;20.20;;;;;;;0.85;84.93;98353.27;1737268;81;21089;-70
2021/11/28 01:06:16;;;;;;;23.73;19.57;;;;;;;0.88;84.90;98358.13;1747405;81;21610;-70
2021/11/28 01:08:44;;;;;;;22.02;18.67;;;;;;;0.90;84.88;98353.33;1737452;81;21597;-70
2021/11/28 01:11:12;;;;;;;22.75;19.12;;;;;;;0.93;84.88;98350.98;1739434;81;21091;-70
2021/11/28 01:13:40;;;;;;;21.40;18.30;;;;;;;0.93;84.87;98352.84;1752101;80;21616;-70
2021/11/28 01:16:07;;;;;;;;;;;;;;;0.89;85.00;98355.20;1746915;80;21581;-70
2021/11/28 01:18:33;;;;;;;24.27;19.65;;;;;;;0.87;85.18;98354.64;1741690;81;20395;-70
2021/11/28 01:21:01;;;;;;;;;;;;;;;0.77;85.42;98341.08;1757704;81;21027;-70
2021/11/28 01:23:27;;;;;;;40.83;24.92;;;;;;;0.80;85.47;98350.48;1748956;81;20142;-70
2021/11/28 01:25:53;;;;;;;44.08;26.27;;;;;;;0.75;85.29;98352.55;1737169;81;21645;-70
2021/11/28 01:28:20;;;;;;;28.32;20.95;;;;;;;0.68;84.97;98356.42;1743029;80;21053;-70
2021/11/28 01:30:46;;;;;;;28.62;20.97;;;;;;;0.63;84.87;98346.98;1738974;81;21044;-70
2021/11/28 01:33:13;;;;;;;31.15;22.02;;;;;;;0.63;84.94;98342.45;1741418;81;21070;-70
2021/11/28 01:35:40;;;;;;;40.75;26.15;;;;;;;0.68;85.05;98359.92;1741388;81;21122;-70
2021/11/28 01:38:06;;;;;;;;;;;;;;;0.67;85.03;98361.00;1747354;81;21057;-71
2021/11/28 01:40:33;;;;;;;49.55;29.92;;;;;;;0.57;84.93;98360.80;1746675;81;20109;-70
2021/11/28 01:43:02;;;;;;;;;;;;;;;0.35;84.82;98362.03;1741886;81;21022;-70
2021/11/28 01:45:32;;;;;;;48.92;29.52;;;;;;;0.22;84.53;98360.95;1747547;81;20109;-70
2021/11/28 01:48:04;;;;;;;50.43;29.30;;;;;;;0.08;84.45;98363.62;1760460;81;21028;-70
2021/11/28 01:50:32;;;;;;;44.48;29.55;;;;;;;0.04;84.52;98361.68;1744769;81;21606;-69
2021/11/28 01:53:01;;;;;;;43.23;27.67;;;;;;;0.07;84.63;98356.66;1743538;81;21035;-70
2021/11/28 01:55:31;;;;;;;40.50;25.35;;;;;;;0.07;84.81;98358.00;1752581;80;21083;-70
2021/11/28 01:57:58;;;;;;;41.35;25.48;;;;;;;0.05;85.07;98353.92;1731572;82;21534;-70
2021/11/28 02:00:29;;;;;;;38.02;25.45;;;;;;;0.03;85.33;98362.20;1749694;81;21106;-70
2021/11/28 02:02:59;;;;;;;34.00;23.90;;;;;;;0.04;85.28;98343.73;1741035;81;21003;-70
2021/11/28 02:05:27;;;;;;;25.65;20.12;;;;;;;0.09;85.15;98343.03;1742909;81;21132;-70
2021/11/28 02:07:53;;;;;;;23.67;18.57;;;;;;;0.13;85.15;98330.28;1758007;81;21548;-70
2021/11/28 02:10:20;;;;;;;24.15;18.57;;;;;;;0.20;85.29;98328.80;1737039;81;21085;-70
2021/11/28 02:12:48;;;;;;;21.62;17.52;;;;;;;0.30;85.61;98325.78;1732922;81;21054;-70
2021/11/28 02:15:17;;;;;;;21.15;16.75;;;;;;;0.41;85.99;98321.42;1750437;80;21103;-70
2021/11/28 02:17:54;;;;;;;23.98;17.60;;;;;;;0.49;86.38;98317.84;1737943;82;21082;-70
2021/11/28 02:20:30;;;;;;;31.57;22.77;;;;;;;0.61;86.66;98310.24;1748933;81;21085;-71
2021/11/28 02:22:57;;;;;;;37.05;24.55;;;;;;;0.74;86.78;98309.95;1728156;82;21022;-71
2021/11/28 02:25:26;;;;;;;32.73;24.47;;;;;;;0.85;86.73;98308.50;1751549;81;21077;-71
2021/11/28 02:27:54;;;;;;;32.10;24.00;;;;;;;0.90;86.56;98303.23;1751157;81;21011;-71
2021/11/28 02:30:21;;;;;;;31.48;23.35;;;;;;;0.93;86.33;98295.23;1743261;81;21142;-71
2021/11/28 02:32:48;;;;;;;28.32;21.62;;;;;;;0.95;86.17;98302.52;1722214;82;21063;-73
2021/11/28 02:35:16;;;;;;;35.65;22.37;;;;;;;0.95;86.05;98301.18;1729404;81;21106;-71
2021/11/28 02:37:43;;;;;;;29.05;21.50;;;;;;;0.89;86.00;98298.93;1686610;83;21075;-70
2021/11/28 02:40:17;;;;;;;29.90;22.77;;;;;;;0.82;85.84;98292.11;1740484;81;21118;-71
2021/11/28 02:42:44;;;;;;;36.20;24.32;;;;;;;0.79;85.66;98301.98;1736782;81;21042;-71
2021/11/28 02:45:11;;;;;;;32.40;22.82;;;;;;;0.76;85.45;98311.84;1740160;81;21119;-71
2021/11/28 02:47:39;;;;;;;32.25;22.80;;;;;;;0.72;85.40;98318.73;1732658;82;21583;-71
2021/11/28 02:50:06;;;;;;;38.35;24.18;;;;;;;0.61;85.20;98319.09;1737479;81;21038;-71
2021/11/28 02:52:33;;;;;;;35.68;24.30;;;;;;;0.48;85.14;98320.75;1739902;81;21065;-70
2021/11/28 02:55:00;;;;;;;37.53;26.45;;;;;;;0.37;85.32;98323.77;1737160;81;21534;-70
2021/11/28 02:57:27;;;;;;;36.17;26.48;;;;;;;0.35;85.41;98315.19;1737360;81;21532;-71
2021/11/28 02:59:54;;;;;;;39.20;26.37;;;;;;;0.37;85.34;98322.43;1734250;81;21593;-70
2021/11/28 03:02:20;;;;;;;38.53;24.57;;;;;;;0.36;85.24;98329.35;1709819;82;21063;-71
2021/11/28 03:04:48;;;;;;;37.73;25.10;;;;;;;0.30;85.04;98337.02;1720133;82;21059;-70
2021/11/28 03:07:16;;;;;;;;;;;;;;;0.24;84.98;98346.82;1768922;81;21170;-71
2021/11/28 03:09:42;;;;;;;35.70;24.97;;;;;;;0.18;85.05;98348.31;1749227;80;20120;-71
2021/11/28 03:12:09;;;;;;;;;;;;;;;0.05;85.28;98340.02;1736110;82;21578;-71
2021/11/28 03:14:36;;;;;;;34.78;24.32;;;;;;;0.04;85.34;98343.73;1740044;81;20218;-71
2021/11/28 03:17:04;;;;;;;46.08;28.60;;;;;;;-0.02;85.32;98330.80;1738409;82;21020;-71
2021/11/28 03:19:30;;;;;;;37.83;26.20;;;;;;;-0.03;85.25;98333.70;1735674;81;21038;-70
2021/11/28 03:21:57;;;;;;;35.52;24.23;;;;;;;-0.06;85.17;98328.30;1744198;81;21041;-71
2021/11/28 03:24:23;;;;;;;37.00;25.68;;;;;;;-0.06;85.29;98330.98;1721492;82;21542;-70
2021/11/28 03:26:53;;;;;;;38.58;25.88;;;;;;;-0.06;85.64;98332.31;1699990;83;21157;-71
2021/11/28 03:29:23;;;;;;;35.92;25.40;;;;;;;0.01;86.15;98336.19;1722459;82;21075;-71
2021/11/28 03:32:01;;;;;;;35.70;24.45;;;;;;;0.13;86.50;98340.17;1756240;80;21036;-71
2021/11/28 03:39:50;;;;;;;35.55;24.47;;;;;;;0.15;85.88;98350.09;1817744;77;23433;-72
2021/11/28 03:42:18;;;;;;;40.05;27.15;;;;;;;-0.05;85.79;98350.52;1752021;80;21070;-71
2021/11/28 03:44:47;;;;;;;38.90;26.15;;;;;;;-0.14;85.59;98348.73;1754578;80;21542;-72
2021/11/28 03:47:15;;;;;;;38.90;25.97;;;;;;;-0.20;85.28;98340.84;1754929;80;21022;-72
2021/11/28 03:49:43;;;;;;;41.15;26.97;;;;;;;-0.23;85.16;98332.78;1768176;80;21126;-72
2021/11/28 03:52:11;;;;;;;40.35;26.23;;;;;;;-0.21;85.23;98321.83;1761697;81;21074;-72
2021/11/28 03:54:40;;;;;;;41.20;26.65;;;;;;;-0.11;85.63;98322.05;1753485;81;21478;-72
2021/11/28 03:57:08;;;;;;;36.63;24.80;;;;;;;-0.02;85.93;98314.75;1747834;81;21038;-72
2021/11/28 03:59:36;;;;;;;37.75;25.43;;;;;;;0.05;86.10;98318.61;1743232;81;21034;-71
2021/11/28 04:02:02;;;;;;;36.88;24.02;;;;;;;0.09;86.39;98317.61;1753569;81;21007;-72
2021/11/28 04:04:29;;;;;;;35.40;24.47;;;;;;;0.14;86.65;98320.39;1751963;80;21058;-72
2021/11/28 04:07:16;;;;;;;37.00;24.82;;;;;;;0.22;86.75;98317.31;1739197;80;21027;-72
2021/11/28 04:09:43;;;;;;;44.20;26.05;;;;;;;0.29;86.57;98301.40;1739647;81;21002;-72
2021/11/28 04:12:11;;;;;;;38.28;25.82;;;;;;;0.38;86.69;98315.22;1746969;80;21012;-72
2021/11/28 04:14:40;;;;;;;41.92;25.90;;;;;;;0.47;86.63;98321.27;1754367;81;21026;-72
2021/11/28 04:17:07;;;;;;;38.13;25.05;;;;;;;0.54;86.59;98321.63;1741676;81;21514;-72
2021/11/28 04:19:37;;;;;;;37.08;24.80;;;;;;;0.57;86.58;98321.17;1745918;81;21027;-72
2021/11/28 04:22:03;;;;;;;38.05;26.30;;;;;;;0.56;86.62;98331.08;1736599;80;21510;-72
2021/11/28 04:24:32;;;;;;;34.85;25.40;;;;;;;0.55;86.68;98331.30;1755687;80;20983;-72
2021/11/28 04:26:58;;;;;;;40.80;25.50;;;;;;;0.54;86.68;98334.50;1755392;81;21109;-72
2021/11/28 04:29:25;;;;;;;37.08;24.98;;;;;;;0.54;86.40;98337.18;1754119;81;21029;-72
2021/11/28 04:31:52;;;;;;;39.88;26.80;;;;;;;0.52;86.13;98344.66;1742732;80;21160;-72
2021/11/28 04:34:19;;;;;;;42.08;26.30;;;;;;;0.52;85.99;98335.80;1743789;80;20948;-72
2021/11/28 04:36:46;;;;;;;40.88;27.30;;;;;;;0.50;85.80;98330.16;1754888;80;21534;-72
2021/11/28 04:39:12;;;;;;;40.12;27.77;;;;;;;0.44;85.68;98333.80;1753886;81;21019;-72
2021/11/28 04:41:39;;;;;;;42.95;29.32;;;;;;;0.39;85.87;98320.87;1758726;81;21563;-71
2021/11/28 04:44:06;;;;;;;;;;;;;;;0.38;86.14;98320.57;1757986;81;21039;-72
2021/11/28 04:46:34;;;;;;;41.95;28.65;;;;;;;0.42;86.36;98332.43;1740061;82;20134;-72
2021/11/28 04:49:02;;;;;;;42.65;27.80;;;;;;;0.45;86.60;98335.44;1749727;81;21043;-72
2021/11/28 04:51:32;;;;;;;36.83;25.92;;;;;;;0.53;86.70;98342.27;1744137;80;21056;-72
2021/11/28 04:53:58;;;;;;;40.03;27.58;;;;;;;0.60;86.68;98357.66;1736888;80;21039;-72
2021/11/28 04:56:26;;;;;;;40.58;27.00;;;;;;;0.67;86.67;98352.15;1741176;80;21051;-71
2021/11/28 04:58:55;;;;;;;39.75;27.82;;;;;;;0.73;86.65;98350.65;1745511;81;21036;-72
2021/11/28 05:01:24;;;;;;;37.75;26.42;;;;;;;0.82;86.75;98355.88;1738732;80;21063;-72
2021/11/28 05:03:52;;;;;;;38.53;27.75;;;;;;;0.86;86.77;98344.15;1745296;81;21019;-72
2021/11/28 05:06:40;;;;;;;41.63;28.05;;;;;;;0.86;86.86;98348.17;1744717;82;21065;-72
2021/11/28 05:09:12;;;;;;;40.28;27.93;;;;;;;0.85;87.06;98339.31;1734130;81;21638;-72
2021/11/28 05:11:40;;;;;;;40.20;27.73;;;;;;;0.86;87.12;98344.97;1722180;81;21041;-71
2021/11/28 05:14:07;;;;;;;48.90;30.55;;;;;;;0.91;87.05;98349.08;1727188;81;21031;-71
2021/11/28 05:16:38;;;;;;;40.45;29.00;;;;;;;0.94;86.98;98347.25;1742852;81;21051;-72
2021/11/28 05:19:24;;;;;;;45.95;29.20;;;;;;;0.95;86.94;98344.05;1766539;81;21523;-72
2021/11/28 05:21:53;;;;;;;41.40;28.00;;;;;;;0.96;86.87;98342.45;1738144;80;21104;-71
2021/11/28 05:24:21;;;;;;;40.70;26.10;;;;;;;0.97;86.87;98345.42;1743648;81;20996;-72
2021/11/28 05:26:50;;;;;;;42.65;25.52;;;;;;;0.97;86.80;98347.28;1743730;81;21091;-72
2021/11/28 05:29:18;;;;;;;38.17;25.52;;;;;;;0.95;86.71;98347.55;1749210;81;21058;-71
2021/11/28 05:31:46;;;;;;;34.92;25.50;;;;;;;0.92;86.64;98347.22;1741538;81;21537;-72
2021/11/28 05:34:17;;;;;;;44.93;26.05;;;;;;;0.90;86.61;98345.30;1726371;82;20984;-72
2021/11/28 05:37:03;;;;;;;42.62;23.35;;;;;;;0.85;86.58;98342.55;1744269;80;21576;-72
2021/11/28 05:39:30;;;;;;;38.73;25.23;;;;;;;0.78;86.69;98347.25;1743922;80;21020;-72
2021/11/28 05:41:57;;;;;;;32.70;24.18;;;;;;;0.76;86.79;98341.30;1754737;81;21510;-72
2021/11/28 05:44:26;;;;;;;33.42;24.18;;;;;;;0.79;86.74;98338.14;1753502;80;21506;-72
2021/11/28 05:47:11;;;;;;;33.88;24.57;;;;;;;0.77;86.64;98349.12;1755424;82;21525;-70
2021/11/28 05:49:48;;;;;;;34.43;23.22;;;;;;;0.76;86.60;98348.82;1643492;86;21081;-71
2021/11/28 05:52:16;;;;;;;29.70;21.23;;;;;;;0.76;86.65;98343.47;1756570;80;21043;-70
2021/11/28 05:54:42;;;;;;;31.50;22.90;;;;;;;0.77;86.67;98350.45;1763588;80;21070;-71
2021/11/28 05:57:09;;;;;;;27.32;20.57;;;;;;;0.78;86.72;98349.93;1761664;81;21051;-71
2021/11/28 05:59:35;;;;;;;35.63;21.52;;;;;;;0.79;86.74;98356.89;1748213;80;21035;-71
2021/11/28 06:02:02;;;;;;;29.42;21.17;;;;;;;0.77;86.74;98361.69;1761676;80;21035;-71
2021/11/28 06:04:30;;;;;;;35.05;22.37;;;;;;;0.69;86.90;98360.73;1756873;80;21043;-71
2021/11/28 06:07:04;;;;;;;33.63;22.00;;;;;;;0.64;87.02;98364.69;1725259;81;21067;-71
2021/11/28 06:09:33;;;;;;;37.13;22.48;;;;;;;0.64;87.01;98364.69;1772774;80;21023;-71
2021/11/28 06:12:00;;;;;;;34.03;21.20;;;;;;;0.63;86.96;98369.23;1770920;81;21043;-70
2021/11/28 06:14:26;;;;;;;29.15;21.33;;;;;;;0.62;86.96;98368.11;1766644;81;21035;-70
2021/11/28 06:16:58;;;;;;;30.40;19.95;;;;;;;0.62;86.98;98364.09;1748390;80;21556;-71
2021/11/28 06:19:34;;;;;;;28.30;20.27;;;;;;;0.63;87.01;98356.36;1725485;80;21836;-70
2021/11/28 06:22:09;;;;;;;29.20;19.82;;;;;;;0.66;87.05;98355.87;1759825;80;20987;-70
2021/11/28 06:24:40;;;;;;;30.37;21.82;;;;;;;0.64;86.99;98349.41;1759106;80;21554;-71
2021/11/28 06:27:13;;;;;;;27.02;20.82;;;;;;;0.64;86.99;98353.97;1774249;81;21079;-71
2021/11/28 06:29:40;;;;;;;29.75;20.72;;;;;;;0.65;87.03;98352.90;1754899;80;21043;-70
2021/11/28 06:32:08;;;;;;;32.25;20.90;;;;;;;0.63;87.00;98365.73;1771537;80;21078;-71
2021/11/28 06:34:53;;;;;;;32.28;20.48;;;;;;;0.60;87.06;98356.32;1751291;80;21605;-71
2021/11/28 06:37:39;;;;;;;33.58;21.45;;;;;;;0.55;87.22;98352.20;1758673;80;21001;-70
2021/11/28 06:40:25;;;;;;;30.88;22.02;;;;;;;0.52;87.40;98361.24;1746055;80;21661;-70
2021/11/28 06:42:53;;;;;;;28.65;21.90;;;;;;;0.55;87.42;98358.08;1761440;81;21065;-69
2021/11/28 06:45:21;;;;;;;32.33;22.65;;;;;;;0.60;87.43;98363.53;1746273;80;21071;-69
2021/11/28 06:47:49;;;;;;;32.98;21.15;;;;;;;0.64;87.41;98354.76;1730767;81;21499;-69
2021/11/28 06:50:15;;;;;;;25.40;19.30;;;;;;;0.68;87.35;98358.58;1750020;80;21066;-69
2021/11/28 06:53:04;;;;;;;27.25;18.50;;;;;;;0.69;87.29;98358.06;1759888;81;21028;-69
2021/11/28 06:55:32;;;;;;;25.05;18.48;;;;;;;0.65;87.25;98351.03;1753637;81;21075;-70
2021/11/28 06:58:20;;;;;;;25.53;19.20;;;;;;;0.65;87.30;98355.58;1737790;82;21535;-69
2021/11/28 07:00:46;;;;;;;26.12;17.67;;;;;;;0.64;87.34;98354.76;1738029;80;21063;-69
2021/11/28 07:03:13;;;;;;;29.30;19.05;;;;;;;0.59;87.46;98357.89;1742336;82;21012;-69
2021/11/28 07:05:52;;;;;;;27.55;19.27;;;;;;;0.58;87.59;98360.27;1687111;82;21118;-69
2021/11/28 07:08:18;;;;;;;24.30;18.65;;;;;;;0.60;87.59;98368.89;1744012;82;21000;-69
2021/11/28 07:10:46;;;;;;;31.20;20.70;;;;;;;0.63;87.58;98367.07;1740380;81;21578;-68
2021/11/28 07:13:15;;;;;;;28.27;19.82;;;;;;;0.67;87.61;98367.70;1761459;81;21008;-69
2021/11/28 07:15:43;;;;;;;28.05;18.48;;;;;;;0.71;87.59;98367.47;1767875;80;21084;-69
2021/11/28 07:18:12;;;;;;;25.80;19.45;;;;;;;0.75;87.62;98365.94;1759335;81;21067;-69
2021/11/28 07:20:57;;;;;;;22.30;17.48;;;;;;;0.80;87.63;98355.33;1757805;81;21052;-71
2021/11/28 07:23:25;;;;;;;28.95;18.70;;;;;;;0.86;87.64;98351.66;1766288;81;21447;-71
2021/11/28 07:25:53;;;;;;;25.55;18.85;;;;;;;0.91;87.67;98346.92;1767754;81;21605;-71
2021/11/28 07:28:22;;;;;;;24.00;18.48;;;;;;;0.98;87.76;98346.23;1740962;81;21522;-71
2021/11/28 07:30:51;;;;;;;24.25;18.70;;;;;;;1.07;87.82;98362.19;1750401;81;21554;-71
2021/11/28 07:33:35;;;;;;;30.48;18.40;;;;;;;1.16;87.88;98364.75;1753376;81;21024;-71
2021/11/28 07:36:06;;;;;;;31.55;19.17;;;;;;;1.22;87.85;98362.43;1721998;82;21092;-71
2021/11/28 07:38:35;;;;;;;27.65;17.65;;;;;;;1.23;87.80;98364.06;1749548;81;21070;-70
2021/11/28 07:41:03;;;;;;;29.57;18.32;;;;;;;1.21;87.81;98361.32;1723003;82;21149;-71
2021/11/28 07:43:41;;;;;;;24.70;18.15;;;;;;;1.20;87.93;98361.87;1710741;84;21049;-71
2021/11/28 07:46:26;;;;;;;24.27;18.05;;;;;;;1.21;87.89;98354.09;1711743;84;21086;-70
2021/11/28 07:48:56;;;;;;;22.52;15.25;;;;;;;1.21;87.86;98363.48;1732259;82;21048;-71
2021/11/28 07:51:23;;;;;;;22.05;15.40;;;;;;;1.25;87.92;98355.75;1741257;82;21130;-71
2021/11/28 07:53:51;;;;;;;21.35;15.10;;;;;;;1.29;87.94;98351.01;1741481;82;21586;-71
2021/11/28 07:56:22;;;;;;;19.73;14.75;;;;;;;1.36;88.01;98350.83;1740998;82;21051;-71
2021/11/28 07:58:55;;;;;;;18.12;14.68;;;;;;;1.41;88.04;98349.05;1720766;80;21007;-71
2021/11/28 08:01:24;;;;;;;17.00;12.95;;;;;;;1.47;88.08;98358.79;1741267;81;21051;-71
2021/11/28 08:03:52;;;;;;;18.12;13.75;;;;;;;1.54;88.09;98365.84;1757033;81;21352;-71
2021/11/28 08:06:37;;;;;;;20.70;13.88;;;;;;;1.57;88.04;98362.13;1747071;81;21071;-71
2021/11/28 08:09:07;;;;;;;29.82;17.62;;;;;;;1.62;88.05;98358.72;1729185;81;21005;-72
2021/11/28 08:11:36;;;;;;;30.90;16.50;;;;;;;1.65;88.00;98357.70;1748200;80;21048;-71
2021/11/28 08:14:02;;;;;;;34.73;20.12;;;;;;;1.66;88.13;98355.83;1748026;81;21014;-71
2021/11/28 08:16:29;;;;;;;21.62;16.42;;;;;;;1.72;88.32;98359.67;1750727;81;21032;-72
2021/11/28 08:18:55;;;;;;;24.52;14.98;;;;;;;1.85;88.36;98359.30;1768099;81;21082;-71
2021/11/28 08:21:26;;;;;;;17.30;14.23;;;;;;;1.93;88.30;98354.84;1741322;80;21076;-71
2021/11/28 08:23:50;;;;;;;26.52;17.55;;;;;;;2.03;88.24;98358.70;1758357;81;21028;-72
2021/11/28 08:26:16;;;;;;;23.38;16.37;;;;;;;2.08;88.20;98366.83;1743015;82;21079;-71
2021/11/28 08:28:45;;;;;;;27.52;16.60;;;;;;;2.12;88.14;98370.64;1752314;82;21074;-71
2021/11/28 08:31:12;;;;;;;29.12;19.45;;;;;;;2.17;88.15;98358.08;1746760;80;21650;-71
2021/11/28 08:33:57;;;;;;;32.65;26.85;;;;;;;2.22;88.14;98366.20;1733029;80;20996;-71
2021/11/28 08:36:44;;;;;;;20.70;16.70;;;;;;;2.25;88.13;98351.45;1652827;86;21121;-70
2021/11/28 08:39:11;;;;;;;27.62;19.70;;;;;;;2.27;88.12;98343.42;1648783;86;21243;-71
2021/11/28 08:41:41;;;;;;;25.95;20.62;;;;;;;2.31;88.17;98346.41;1660623;83;21195;-71
2021/11/28 08:44:08;;;;;;;22.00;17.65;;;;;;;2.38;88.25;98345.68;1725814;83;21033;-71
2021/11/28 08:46:36;;;;;;;24.92;18.45;;;;;;;2.47;88.32;98346.34;1725488;82;21116;-70
2021/11/28 08:49:03;;;;;;;;;;;;;;;2.58;88.40;98347.78;1728218;83;21053;-71
2021/11/28 08:51:29;;;;;;;20.95;14.83;;;;;;;2.67;88.42;98344.91;1726302;82;20426;-71
2021/11/28 08:53:58;;;;;;;31.27;16.50;;;;;;;2.70;88.51;98343.05;1725546;83;21021;-71
2021/11/28 08:56:25;;;;;;;22.80;17.70;;;;;;;2.66;88.57;98337.38;1724767;83;21088;-71
2021/11/28 08:58:53;;;;;;;45.73;31.00;;;;;;;2.71;88.63;98332.06;1725792;82;21571;-71
2021/11/28 09:01:19;;;;;;;29.72;22.27;;;;;;;2.81;88.58;98329.98;1725888;82;21391;-71
2021/11/28 09:03:47;;;;;;;23.83;17.65;;;;;;;2.86;88.53;98330.86;1725900;83;21001;-70
2021/11/28 09:06:14;;;;;;;22.02;16.17;;;;;;;2.90;88.51;98330.63;1723567;82;21061;-71
2021/11/28 09:08:40;;;;;;;23.70;17.52;;;;;;;2.97;88.48;98335.78;1718695;83;21023;-70
2021/11/28 09:11:07;;;;;;;24.75;17.90;;;;;;;3.01;88.48;98330.95;1724402;82;21044;-71
2021/11/28 09:13:35;;;;;;;;;;;;;;;3.09;88.50;98324.30;1728439;83;21044;-70
2021/11/28 09:16:03;;;;;;;25.37;18.77;;;;;;;3.18;88.58;98331.37;1726169;82;20402;-70
2021/11/28 09:18:37;;;;;;;25.00;18.25;;;;;;;3.19;88.64;98332.44;1725854;82;21021;-70
2021/11/28 09:21:00;;;;;;;28.62;20.37;;;;;;;3.22;88.68;98326.57;1724314;83;21904;-70
2021/11/28 09:26:13;;;;;;;25.40;18.85;;;;;;;3.39;88.71;98316.98;1721614;82;21039;-70
2021/11/28 09:28:40;;;;;;;30.30;21.33;;;;;;;3.46;88.69;98318.91;1718955;83;20996;-71
2021/11/28 09:31:09;;;;;;;;;;;;;;;3.54;88.72;98320.31;1728250;83;21116;-71
2021/11/28 09:33:38;;;;;;;32.90;24.18;;;;;;;3.64;88.83;98313.63;1724437;83;20127;-71
2021/11/28 09:36:06;;;;;;;27.95;21.17;;;;;;;3.69;88.94;98304.22;1725656;83;21118;-71
2021/11/28 09:38:32;;;;;;;28.90;21.07;;;;;;;3.78;88.99;98302.14;1725710;83;21005;-70
2021/11/28 09:41:06;;;;;;;32.67;22.67;;;;;;;3.87;88.93;98301.08;1725408;82;21083;-71
2021/11/28 09:43:34;;;;;;;65.47;40.85;;;;;;;3.96;88.89;98296.30;1743784;82;21027;-71
2021/11/28 09:46:04;;;;;;;42.45;28.10;;;;;;;4.07;88.86;98293.63;1747778;80;21039;-70
2021/11/28 09:48:30;;;;;;;43.92;30.70;;;;;;;4.09;88.93;98292.81;1747324;82;21083;-69
2021/11/28 09:50:57;;;;;;;35.55;26.17;;;;;;;4.16;89.03;98292.84;1747966;81;21008;-69
2021/11/28 09:53:23;;;;;;;34.53;24.60;;;;;;;4.23;88.86;98290.70;1746620;80;21063;-68
2021/11/28 09:55:50;;;;;;;;;;;;;;;4.27;88.67;98283.72;1750340;81;21035;-70
2021/11/28 09:58:17;;;;;;;39.75;26.50;;;;;;;4.29;88.60;98284.25;1741847;80;20107;-70
2021/11/28 10:00:44;;;;;;;35.68;24.15;;;;;;;4.32;88.69;98278.89;1745700;82;21704;-71
2021/11/28 10:03:12;;;;;;;56.80;45.00;;;;;;;4.37;88.76;98285.61;1727655;82;21130;-70
2021/11/28 10:05:40;;;;;;;41.13;29.00;;;;;;;4.42;88.69;98279.72;1747748;81;21103;-70
2021/11/28 10:08:08;;;;;;;43.73;29.70;;;;;;;4.52;88.75;98276.22;1737120;82;21059;-70
2021/11/28 10:10:37;;;;;;;38.13;25.85;;;;;;;4.61;88.80;98272.44;1741213;81;21515;-71
2021/11/28 10:13:03;;;;;;;51.70;36.05;;;;;;;4.71;88.78;98274.59;1703384;83;21524;-70
2021/11/28 10:15:31;;;;;;;53.73;33.35;;;;;;;4.79;88.70;98283.50;1759340;80;21343;-70
2021/11/28 10:17:59;;;;;;;107.90;60.38;;;;;;;4.85;88.63;98270.85;1741082;80;21582;-70
2021/11/28 10:20:27;;;;;;;71.22;44.98;;;;;;;4.84;88.62;98274.08;1747342;82;21099;-71
2021/11/28 10:22:54;;;;;;;68.95;43.13;;;;;;;4.91;88.69;98281.36;1741966;80;21063;-70
2021/11/28 10:25:30;;;;;;;49.08;36.10;;;;;;;5.05;88.57;98278.92;1746906;81;21067;-70
2021/11/28 10:28:04;;;;;;;55.03;38.67;;;;;;;5.15;88.39;98275.39;1753779;81;21004;-71
2021/11/28 10:30:40;;;;;;;68.25;45.43;;;;;;;5.19;88.30;98274.59;1745813;80;21032;-71
2021/11/28 10:33:13;;;;;;;53.07;36.10;;;;;;;5.18;88.37;98274.84;1741268;81;21542;-71
2021/11/28 10:36:04;;;;;;;54.33;38.70;;;;;;;5.20;88.30;98274.05;1739008;81;21064;-72
2021/11/28 10:38:40;;;;;;;50.50;33.88;;;;;;;5.25;88.08;98268.63;1741283;80;21527;-73
2021/11/28 10:41:22;;;;;;;43.52;29.67;;;;;;;5.22;87.99;98261.89;1746300;81;21035;-71
2021/11/28 10:43:49;;;;;;;39.63;28.27;;;;;;;5.17;88.08;98265.16;1724935;82;21575;-72
2021/11/28 10:46:28;;;;;;;;;;;;;;;5.17;88.20;98259.77;1728230;82;21068;-73
2021/11/28 10:49:12;;;;;;;40.83;29.72;;;;;;;5.21;88.15;98262.19;1725644;83;20120;-72
2021/11/28 10:51:43;;;;;;;48.90;35.70;;;;;;;5.18;88.12;98251.91;1725105;82;21083;-72
2021/11/28 10:54:32;;;;;;;60.48;39.63;;;;;;;5.11;87.94;98248.16;1724601;83;21032;-72
2021/11/28 10:57:14;;;;;;;46.25;32.28;;;;;;;5.04;88.02;98242.23;1725895;82;21036;-72
2021/11/28 10:59:45;;;;;;;36.33;26.97;;;;;;;5.07;88.21;98232.24;1725601;82;21048;-72
2021/11/28 11:02:39;;;;;;;41.53;29.42;;;;;;;5.13;88.18;98230.36;1725801;82;21582;-72
2021/11/28 11:16:52;;;;;;;29.37;24.27;;;;;;;6.55;83.63;98234.05;1788807;79;23115;-68
2021/11/28 11:19:35;;;;;;;26.87;22.40;;;;;;;6.42;83.29;98230.07;1766907;80;20999;-66
2021/11/28 11:22:26;;;;;;;29.40;22.32;;;;;;;6.22;83.94;98223.45;1734871;82;21032;-68
2021/11/28 11:25:03;;;;;;;31.40;24.12;;;;;;;6.07;84.45;98226.25;1729705;82;21090;-69
2021/11/28 11:27:37;;;;;;;34.95;23.98;;;;;;;5.86;85.00;98226.09;1730113;81;21034;-68
2021/11/28 11:30:21;;;;;;;33.88;24.07;;;;;;;5.74;85.51;98229.07;1737322;82;21074;-70
2021/11/28 11:32:54;;;;;;;33.95;25.17;;;;;;;5.65;85.73;98229.39;1731052;82;21015;-71
2021/11/28 11:35:28;;;;;;;30.80;23.60;;;;;;;5.52;85.87;98231.34;1731189;83;21746;-67
2021/11/28 11:38:02;;;;;;;27.95;21.57;;;;;;;5.42;86.05;98236.77;1730214;81;20987;-66
2021/11/28 11:40:30;;;;;;;29.42;21.35;;;;;;;5.34;86.27;98231.39;1711882;83;21094;-66
2021/11/28 11:42:56;;;;;;;30.80;22.60;;;;;;;5.30;86.49;98233.56;1721509;83;20979;-66
2021/11/28 11:45:29;;;;;;;32.60;24.90;;;;;;;5.25;86.63;98240.30;1726477;82;21078;-64
2021/11/28 11:47:56;;;;;;;32.08;23.60;;;;;;;5.22;86.75;98240.85;1715139;81;21005;-65
2021/11/28 11:50:26;;;;;;;57.75;47.88;;;;;;;5.16;86.99;98233.86;1724101;81;21101;-67
2021/11/28 11:52:54;;;;;;;45.15;31.85;;;;;;;5.13;87.16;98229.02;1727983;83;21066;-64
2021/11/28 11:55:27;;;;;;;99.28;56.75;;;;;;;5.12;87.28;98230.90;1723174;82;21118;-66
2021/11/28 11:58:28;;;;;;;123.87;93.47;;;;;;;5.14;87.31;98222.52;1727288;82;21522;-65
2021/11/28 12:01:27;;;;;;;72.70;56.37;;;;;;;5.15;87.44;98224.95;1730866;81;21013;-66
2021/11/28 12:03:54;;;;;;;47.25;37.70;;;;;;;5.20;87.64;98218.75;1724721;82;21116;-65
2021/11/28 12:06:49;;;;;;;31.93;25.25;;;;;;;5.24;87.77;98207.14;1729209;82;21096;-66